createdAt,value
2023-03-29T00:02:14.246Z,0.70
2023-03-29T00:04:41.390Z,0.60
2023-03-29T00:07:08.575Z,0.63
2023-03-29T00:09:35.833Z,0.70
2023-03-29T00:12:02.854Z,0.88
2023-03-29T00:14:30.953Z,0.63
2023-03-29T00:16:59.131Z,0.57
2023-03-29T00:19:26.498Z,0.80
2023-03-29T00:21:53.376Z,0.85
2023-03-29T00:24:21.376Z,0.73
2023-03-29T00:26:48.524Z,0.85
2023-03-29T00:29:16.008Z,0.75
2023-03-29T00:31:45.975Z,0.90
2023-03-29T00:34:13.072Z,0.70
2023-03-29T00:36:40.441Z,1.05
2023-03-29T00:39:07.532Z,0.80
2023-03-29T00:41:34.651Z,0.52
2023-03-29T00:44:04.473Z,0.73
2023-03-29T00:46:32.368Z,0.50
2023-03-29T00:49:09.150Z,0.65
2023-03-29T00:51:39.855Z,0.50
2023-03-29T00:54:14.862Z,0.57
2023-03-29T00:56:49.777Z,0.22
2023-03-29T00:59:23.225Z,0.35
2023-03-29T01:02:02.110Z,0.55
2023-03-29T01:05:18.402Z,0.50
2023-03-29T01:08:06.685Z,0.50
2023-03-29T01:10:42.621Z,0.60
2023-03-29T01:13:19.908Z,0.40
2023-03-29T01:15:48.139Z,0.60
2023-03-29T01:18:15.303Z,0.50
2023-03-29T01:21:15.179Z,0.70
2023-03-29T01:24:29.203Z,0.50
2023-03-29T01:27:14.736Z,0.60
2023-03-29T01:29:54.111Z,0.50
2023-03-29T01:32:50.817Z,0.70
2023-03-29T01:35:45.383Z,0.60
2023-03-29T01:38:25.468Z,0.60
2023-03-29T01:40:52.444Z,0.57
2023-03-29T01:43:30.477Z,0.60
2023-03-29T01:46:34.342Z,0.55
2023-03-29T01:49:59.571Z,0.60
2023-03-29T01:52:44.702Z,0.45
2023-03-29T01:55:20.589Z,0.57
2023-03-29T01:57:49.060Z,0.63
2023-03-29T02:00:24.589Z,0.60
2023-03-29T02:03:00.114Z,0.70
2023-03-29T02:05:31.547Z,0.43
2023-03-29T02:08:01.682Z,0.50
2023-03-29T02:10:30.136Z,0.70
2023-03-29T02:12:57.027Z,0.63
2023-03-29T02:15:24.270Z,0.77
2023-03-29T02:17:51.722Z,0.50
2023-03-29T02:20:38.987Z,0.50
2023-03-29T02:23:40.933Z,0.70
2023-03-29T02:26:08.983Z,0.52
2023-03-29T02:28:39.480Z,0.43
2023-03-29T02:31:19.065Z,0.50
2023-03-29T02:34:07.878Z,0.40
2023-03-29T02:36:50.759Z,0.50
2023-03-29T02:39:20.675Z,0.45
2023-03-29T02:41:52.009Z,0.67
2023-03-29T02:44:24.056Z,0.60
2023-03-29T02:46:58.623Z,0.60
2023-03-29T02:49:27.066Z,0.50
2023-03-29T02:51:59.794Z,0.40
2023-03-29T02:54:31.594Z,0.60
2023-03-29T02:57:03.492Z,0.60
2023-03-29T02:59:33.585Z,0.50
2023-03-29T03:02:01.271Z,0.63
2023-03-29T03:04:29.450Z,0.40
2023-03-29T03:06:56.666Z,0.40
2023-03-29T03:09:24.206Z,0.50
2023-03-29T03:11:51.220Z,0.60
2023-03-29T03:14:19.084Z,0.50
2023-03-29T03:16:46.379Z,0.45
2023-03-29T03:19:13.495Z,0.55
2023-03-29T03:21:40.479Z,0.50
2023-03-29T03:24:07.840Z,0.70
2023-03-29T03:26:35.948Z,0.60
2023-03-29T03:29:02.874Z,0.38
2023-03-29T03:31:29.775Z,0.60
2023-03-29T03:33:56.739Z,0.47
2023-03-29T03:36:26.055Z,0.50
2023-03-29T03:38:53.257Z,0.45
2023-03-29T03:41:20.377Z,0.45
2023-03-29T03:43:48.925Z,0.50
2023-03-29T03:46:17.193Z,0.70
2023-03-29T03:48:46.284Z,0.60
2023-03-29T03:51:13.526Z,0.55
2023-03-29T03:53:40.398Z,0.57
2023-03-29T03:56:10.848Z,0.88
2023-03-29T03:58:38.164Z,0.52
2023-03-29T04:01:06.210Z,0.60
2023-03-29T04:03:33.110Z,0.50
2023-03-29T04:06:04.235Z,0.55
2023-03-29T04:08:32.012Z,0.85
2023-03-29T04:11:00.252Z,0.60
2023-03-29T04:13:27.807Z,0.52
2023-03-29T04:15:58.127Z,0.50
2023-03-29T04:18:26.766Z,0.40
2023-03-29T04:20:53.647Z,0.30
2023-03-29T04:23:20.651Z,0.65
2023-03-29T04:25:47.507Z,0.50
2023-03-29T04:28:14.371Z,0.75
2023-03-29T04:30:41.508Z,0.55
2023-03-29T04:33:08.493Z,0.50
2023-03-29T04:35:36.188Z,0.40
2023-03-29T04:38:04.359Z,0.63
2023-03-29T04:40:31.660Z,0.40
2023-03-29T04:43:00.014Z,0.40
2023-03-29T04:45:27.269Z,0.70
2023-03-29T04:47:59.632Z,0.47
2023-03-29T04:50:27.015Z,0.40
2023-03-29T04:52:53.860Z,0.30
2023-03-29T04:55:20.806Z,0.45
2023-03-29T04:57:47.658Z,0.50
2023-03-29T05:00:15.504Z,0.38
2023-03-29T05:02:44.681Z,0.50
2023-03-29T05:05:12.482Z,0.40
2023-03-29T05:07:40.050Z,0.38
2023-03-29T05:10:08.398Z,0.40
2023-03-29T05:12:35.343Z,0.43
2023-03-29T05:15:02.347Z,0.20
2023-03-29T05:17:29.249Z,0.47
2023-03-29T05:19:56.229Z,0.50
2023-03-29T05:22:24.104Z,0.50
2023-03-29T05:24:52.807Z,0.63
2023-03-29T05:27:22.782Z,0.45
2023-03-29T05:29:49.657Z,0.38
2023-03-29T05:32:16.525Z,0.30
2023-03-29T05:34:43.457Z,0.40
2023-03-29T05:37:10.294Z,0.32
2023-03-29T05:39:37.789Z,0.40
2023-03-29T05:42:05.888Z,0.40
2023-03-29T05:44:32.765Z,0.43
2023-03-29T05:46:59.602Z,0.50
2023-03-29T05:49:26.966Z,0.50
2023-03-29T05:51:56.873Z,0.57
2023-03-29T05:54:25.362Z,0.30
2023-03-29T05:56:52.348Z,0.40
2023-03-29T05:59:19.800Z,0.30
2023-03-29T06:01:49.228Z,0.30
2023-03-29T06:04:18.070Z,0.22
2023-03-29T06:06:45.088Z,0.38
2023-03-29T06:09:12.277Z,0.30
2023-03-29T06:11:39.282Z,0.57
2023-03-29T06:14:06.341Z,0.40
2023-03-29T06:16:33.197Z,0.40
2023-03-29T06:19:00.417Z,0.30
2023-03-29T06:21:28.423Z,0.32
2023-03-29T06:23:55.353Z,0.50
2023-03-29T06:26:22.424Z,0.30
2023-03-29T06:28:51.520Z,0.65
2023-03-29T06:31:19.940Z,0.30
2023-03-29T06:33:47.222Z,0.25
2023-03-29T06:36:16.288Z,0.70
2023-03-29T06:38:45.851Z,0.35
2023-03-29T06:41:12.711Z,0.30
2023-03-29T06:43:39.888Z,0.43
2023-03-29T06:46:12.268Z,0.30
2023-03-29T06:48:41.018Z,0.40
2023-03-29T06:51:08.354Z,0.40
2023-03-29T06:53:35.487Z,0.47
2023-03-29T06:56:08.886Z,0.20
2023-03-29T06:58:36.173Z,0.52
2023-03-29T07:01:04.568Z,0.25
2023-03-29T07:03:34.890Z,0.38
2023-03-29T07:06:10.127Z,0.30
2023-03-29T07:08:43.705Z,0.50
2023-03-29T07:11:13.213Z,0.35
2023-03-29T07:13:42.585Z,0.50
2023-03-29T07:16:13.842Z,0.45
2023-03-29T07:18:44.063Z,0.40
2023-03-29T07:21:13.396Z,0.40
2023-03-29T07:23:40.832Z,0.43
2023-03-29T07:26:08.564Z,0.50
2023-03-29T07:28:43.201Z,0.50
2023-03-29T07:31:12.304Z,0.35
2023-03-29T07:33:39.500Z,0.43
2023-03-29T07:36:08.122Z,0.50
2023-03-29T07:38:35.021Z,0.45
2023-03-29T07:41:05.840Z,0.77
2023-03-29T07:46:04.745Z,0.40
2023-03-29T07:48:33.673Z,0.45
2023-03-29T07:51:01.422Z,0.40
2023-03-29T07:53:29.827Z,0.70
2023-03-29T07:55:57.026Z,0.50
2023-03-29T07:58:23.868Z,0.57
2023-03-29T08:00:50.860Z,0.40
2023-03-29T08:03:17.949Z,0.40
2023-03-29T08:05:45.079Z,0.32
2023-03-29T08:08:14.358Z,0.40
2023-03-29T08:10:42.689Z,0.55
2023-03-29T08:13:11.759Z,0.50
2023-03-29T08:15:40.913Z,0.40
2023-03-29T08:18:08.389Z,0.43
2023-03-29T08:20:35.789Z,0.35
2023-03-29T08:23:03.171Z,0.60
2023-03-29T08:25:30.284Z,0.32
2023-03-29T08:27:57.251Z,0.30
2023-03-29T08:30:24.673Z,0.40
2023-03-29T08:32:54.932Z,0.47
2023-03-29T08:37:49.537Z,0.30
2023-03-29T08:40:28.003Z,0.60
2023-03-29T08:43:12.033Z,1.02
2023-03-29T08:46:10.538Z,0.55
2023-03-29T08:48:52.160Z,0.38
2023-03-29T08:51:45.956Z,0.40
2023-03-29T08:54:27.075Z,0.70
2023-03-29T08:57:07.518Z,0.32
2023-03-29T08:59:34.906Z,0.30
2023-03-29T09:02:10.640Z,0.30
2023-03-29T09:04:42.512Z,0.50
2023-03-29T09:07:10.803Z,0.40
2023-03-29T09:09:38.315Z,0.40
2023-03-29T09:12:11.443Z,0.50
2023-03-29T09:14:52.758Z,0.60
2023-03-29T09:18:07.408Z,0.68
2023-03-29T09:20:51.539Z,0.82
2023-03-29T09:23:55.713Z,0.50
2023-03-29T09:26:57.161Z,0.43
2023-03-29T09:29:43.123Z,0.30
2023-03-29T09:32:31.289Z,0.55
2023-03-29T09:35:27.609Z,0.47
2023-03-29T09:37:55.550Z,0.30
2023-03-29T09:40:32.833Z,0.32
2023-03-29T09:43:04.315Z,0.50
2023-03-29T09:45:31.723Z,0.38
2023-03-29T09:48:09.941Z,0.50
2023-03-29T09:50:43.796Z,0.60
2023-03-29T09:53:10.983Z,0.25
2023-03-29T09:55:40.711Z,0.70
2023-03-29T09:58:15.258Z,0.43
2023-03-29T10:00:42.897Z,0.60
2023-03-29T10:03:10.881Z,0.30
2023-03-29T10:05:38.526Z,0.40
2023-03-29T10:08:22.666Z,0.63
2023-03-29T10:10:49.927Z,0.32
2023-03-29T10:13:44.620Z,0.40
2023-03-29T10:16:45.136Z,0.52
2023-03-29T10:19:31.179Z,0.30
2023-03-29T10:22:03.411Z,0.93
2023-03-29T10:24:31.365Z,0.63
2023-03-29T10:27:06.887Z,0.40
2023-03-29T10:29:43.621Z,0.60
2023-03-29T10:32:35.784Z,0.28
2023-03-29T10:35:41.851Z,0.40
2023-03-29T10:38:18.387Z,0.50
2023-03-29T10:40:53.912Z,0.40
2023-03-29T10:43:32.715Z,0.60
2023-03-29T10:46:13.447Z,0.30
2023-03-29T10:51:15.431Z,0.30
2023-03-29T10:53:42.310Z,0.30
2023-03-29T10:56:40.617Z,0.35
2023-03-29T11:00:08.806Z,0.40
2023-03-29T11:02:54.757Z,0.40
2023-03-29T11:05:36.943Z,0.40
2023-03-29T11:08:48.207Z,0.30
2023-03-29T11:11:44.414Z,0.20
2023-03-29T11:14:51.211Z,0.43
2023-03-29T11:17:50.828Z,0.73
2023-03-29T11:20:58.854Z,0.52
2023-03-29T11:24:06.835Z,0.30
2023-03-29T11:26:59.033Z,0.35
2023-03-29T11:29:52.770Z,0.20
2023-03-29T11:33:14.241Z,0.30
2023-03-29T11:36:14.488Z,0.50
2023-03-29T11:39:44.842Z,0.68
2023-03-29T11:42:24.079Z,0.32
2023-03-29T11:44:57.584Z,0.25
2023-03-29T11:47:32.667Z,0.40
2023-03-29T11:50:21.606Z,0.40
2023-03-29T11:53:01.456Z,0.40
2023-03-29T11:55:39.331Z,0.40
2023-03-29T11:58:34.908Z,0.57
2023-03-29T12:01:12.822Z,0.68
2023-03-29T12:03:57.534Z,0.30
2023-03-29T12:06:36.959Z,0.40
2023-03-29T12:09:23.529Z,0.20
2023-03-29T12:12:34.950Z,0.30
2023-03-29T12:15:20.314Z,0.40
2023-03-29T12:18:07.232Z,0.52
2023-03-29T12:20:40.503Z,0.50
2023-03-29T12:23:14.380Z,0.40
2023-03-29T12:26:16.392Z,0.30
2023-03-29T12:29:31.424Z,0.40
2023-03-29T12:32:32.536Z,0.28
2023-03-29T12:35:18.708Z,0.68
2023-03-29T12:38:25.837Z,0.98
2023-03-29T12:41:00.283Z,0.52
2023-03-29T12:43:48.785Z,0.70
2023-03-29T12:46:24.051Z,0.50
2023-03-29T12:48:57.357Z,0.43
2023-03-29T12:51:33.044Z,0.55
2023-03-29T12:54:20.679Z,0.30
2023-03-29T12:56:54.322Z,0.30
2023-03-29T12:59:39.360Z,0.47
2023-03-29T13:02:35.039Z,0.30
2023-03-29T13:05:04.835Z,0.30
2023-03-29T13:07:47.454Z,0.50
2023-03-29T13:10:42.130Z,0.40
2023-03-29T13:13:18.816Z,0.52
2023-03-29T13:15:46.508Z,0.57
2023-03-29T13:18:48.434Z,0.40
2023-03-29T13:21:39.307Z,0.70
2023-03-29T13:27:29.499Z,0.30
2023-03-29T13:30:13.468Z,0.40
2023-03-29T13:33:11.113Z,0.40
2023-03-29T13:35:46.990Z,0.30
2023-03-29T13:38:31.670Z,0.40
2023-03-29T13:41:23.080Z,0.35
2023-03-29T13:43:54.499Z,0.50
2023-03-29T13:46:41.015Z,0.50
2023-03-29T13:49:23.962Z,0.60
2023-03-29T13:51:53.869Z,0.40
2023-03-29T13:54:30.821Z,0.40
2023-03-29T13:57:12.798Z,0.43
2023-03-29T14:00:02.212Z,0.45
2023-03-29T14:03:04.514Z,0.40
2023-03-29T14:05:40.142Z,0.30
2023-03-29T14:08:21.825Z,0.60
2023-03-29T14:10:49.217Z,0.30
2023-03-29T14:13:21.415Z,0.30
2023-03-29T14:16:02.972Z,0.50
2023-03-29T14:18:44.675Z,0.40
2023-03-29T14:21:14.487Z,0.32
2023-03-29T14:23:47.439Z,0.38
2023-03-29T14:26:24.196Z,0.30
2023-03-29T14:28:56.649Z,0.25
2023-03-29T14:31:33.500Z,0.60
2023-03-29T14:34:04.446Z,0.40
2023-03-29T14:36:33.493Z,0.30
2023-03-29T14:39:14.788Z,0.38
2023-03-29T14:41:50.446Z,0.30
2023-03-29T14:44:21.801Z,0.40
2023-03-29T14:46:49.000Z,0.45
2023-03-29T14:49:22.973Z,0.43
2023-03-29T14:51:52.109Z,0.40
2023-03-29T14:54:32.656Z,0.30
2023-03-29T14:57:03.522Z,0.40
2023-03-29T14:59:41.263Z,0.65
2023-03-29T15:02:27.967Z,0.30
2023-03-29T15:04:56.868Z,0.45
2023-03-29T15:07:27.288Z,0.30
2023-03-29T15:09:56.858Z,0.43
2023-03-29T15:12:23.886Z,0.70
2023-03-29T15:14:52.915Z,0.45
2023-03-29T15:17:50.963Z,0.40
2023-03-29T15:20:33.869Z,0.80
2023-03-29T15:23:08.419Z,0.70
2023-03-29T15:25:49.128Z,0.50
2023-03-29T15:28:46.784Z,0.38
2023-03-29T15:31:19.769Z,0.43
2023-03-29T15:33:47.229Z,0.50
2023-03-29T15:36:15.616Z,0.60
2023-03-29T15:38:44.976Z,0.40
2023-03-29T15:41:14.304Z,0.60
2023-03-29T15:43:42.361Z,0.50
2023-03-29T15:46:13.602Z,0.40
2023-03-29T15:48:40.813Z,0.80
2023-03-29T15:51:10.728Z,0.80
2023-03-29T15:53:37.581Z,0.53
2023-03-29T15:56:10.175Z,0.63
2023-03-29T15:58:37.954Z,0.43
2023-03-29T16:01:23.558Z,0.40
2023-03-29T16:03:53.340Z,0.60
2023-03-29T16:06:22.287Z,0.60
2023-03-29T16:08:49.234Z,0.88
2023-03-29T16:11:16.201Z,0.52
2023-03-29T16:13:43.131Z,0.50
2023-03-29T16:16:11.472Z,0.50
2023-03-29T16:18:38.858Z,0.50
2023-03-29T16:21:06.580Z,0.50
2023-03-29T16:23:33.460Z,0.60
2023-03-29T16:26:00.458Z,0.43
2023-03-29T16:28:28.179Z,0.45
2023-03-29T16:30:55.173Z,0.70
2023-03-29T16:33:22.166Z,0.68
2023-03-29T16:35:49.066Z,2.65
2023-03-29T16:38:15.942Z,0.82
2023-03-29T16:40:43.665Z,0.60
2023-03-29T16:43:16.123Z,0.68
2023-03-29T16:45:43.202Z,0.70
2023-03-29T16:48:17.149Z,0.80
2023-03-29T16:50:49.465Z,0.70
2023-03-29T16:53:21.482Z,0.60
2023-03-29T16:55:50.041Z,0.60
2023-03-29T16:58:17.310Z,0.95
2023-03-29T17:00:47.209Z,0.80
2023-03-29T17:03:16.185Z,0.60
2023-03-29T17:05:51.987Z,0.60
2023-03-29T17:08:21.111Z,0.82
2023-03-29T17:10:54.036Z,0.95
2023-03-29T17:13:23.705Z,0.80
2023-03-29T17:15:52.467Z,1.02
2023-03-29T17:18:21.668Z,0.63
2023-03-29T17:20:51.261Z,0.70
2023-03-29T17:23:19.224Z,0.73
2023-03-29T17:25:46.105Z,1.30
2023-03-29T17:28:13.307Z,1.02
2023-03-29T17:30:41.255Z,1.00
2023-03-29T17:33:08.464Z,1.90
2023-03-29T17:35:37.406Z,1.90
2023-03-29T17:38:04.441Z,1.58
2023-03-29T17:40:31.323Z,1.38
2023-03-29T17:42:58.205Z,1.25
2023-03-29T17:45:25.790Z,1.40
2023-03-29T17:47:52.659Z,1.45
2023-03-29T17:50:19.779Z,1.08
2023-03-29T17:52:47.083Z,1.25
2023-03-29T17:55:14.168Z,2.05
2023-03-29T17:57:42.318Z,1.75
2023-03-29T18:00:13.707Z,1.83
2023-03-29T18:02:41.894Z,2.28
2023-03-29T18:05:10.305Z,2.63
2023-03-29T18:07:37.713Z,2.40
2023-03-29T18:10:07.251Z,2.00
2023-03-29T18:12:34.183Z,2.85
2023-03-29T18:15:01.430Z,3.20
2023-03-29T18:17:28.502Z,3.55
2023-03-29T18:19:55.378Z,3.22
2023-03-29T18:22:23.981Z,2.88
2023-03-29T18:24:51.193Z,3.30
2023-03-29T18:27:18.875Z,3.40
2023-03-29T18:29:45.846Z,3.08
2023-03-29T18:32:14.220Z,3.72
2023-03-29T18:34:41.303Z,3.20
2023-03-29T18:37:14.487Z,3.78
2023-03-29T18:39:41.826Z,2.17
2023-03-29T18:42:11.647Z,2.30
2023-03-29T18:44:40.640Z,3.58
2023-03-29T18:47:07.832Z,2.67
2023-03-29T18:49:34.948Z,2.97
2023-03-29T18:52:02.215Z,3.33
2023-03-29T18:54:29.223Z,3.03
2023-03-29T18:56:58.631Z,2.50
2023-03-29T18:59:26.368Z,2.97
2023-03-29T19:01:53.368Z,2.38
2023-03-29T19:04:20.293Z,2.30
2023-03-29T19:06:47.564Z,2.53
2023-03-29T19:09:14.424Z,2.22
2023-03-29T19:11:41.515Z,3.03
2023-03-29T19:14:09.340Z,2.75
2023-03-29T19:16:36.447Z,2.38
2023-03-29T19:19:05.710Z,2.53
2023-03-29T19:21:33.411Z,2.03
2023-03-29T19:24:03.908Z,2.30
2023-03-29T19:26:33.263Z,1.98
2023-03-29T19:29:01.095Z,2.13
2023-03-29T19:31:28.771Z,2.08
2023-03-29T19:33:55.829Z,2.72
2023-03-29T19:36:22.994Z,2.75
2023-03-29T19:38:50.095Z,1.88
2023-03-29T19:41:17.682Z,2.05
2023-03-29T19:43:44.590Z,2.60
2023-03-29T19:46:13.319Z,2.05
2023-03-29T19:48:40.552Z,1.70
2023-03-29T19:51:08.081Z,1.33
2023-03-29T19:53:38.434Z,1.42
2023-03-29T19:58:34.721Z,0.90
2023-03-29T20:01:01.836Z,1.17
2023-03-29T20:03:29.140Z,1.20
2023-03-29T20:05:56.786Z,2.10
2023-03-29T20:08:24.896Z,1.23
2023-03-29T20:11:04.029Z,1.77
2023-03-29T20:13:38.022Z,1.80
2023-03-29T20:16:11.883Z,1.38
2023-03-29T20:18:39.734Z,1.10
2023-03-29T20:21:09.040Z,1.48
2023-03-29T20:23:36.580Z,1.45
2023-03-29T20:26:03.558Z,1.27
2023-03-29T20:28:30.525Z,1.63
2023-03-29T20:30:57.348Z,1.80
2023-03-29T20:33:24.421Z,1.30
2023-03-29T20:35:51.297Z,1.83
2023-03-29T20:38:18.313Z,1.20
2023-03-29T20:40:45.231Z,1.33
2023-03-29T20:43:13.453Z,1.20
2023-03-29T20:45:52.712Z,1.20
2023-03-29T20:48:31.275Z,1.75
2023-03-29T20:50:58.151Z,1.30
2023-03-29T20:53:25.809Z,0.90
2023-03-29T20:55:52.853Z,1.00
2023-03-29T20:58:19.688Z,1.35
2023-03-29T21:00:49.518Z,1.42
2023-03-29T21:03:16.495Z,1.30
2023-03-29T21:05:43.430Z,1.67
2023-03-29T21:08:10.967Z,1.20
2023-03-29T21:10:38.036Z,1.58
2023-03-29T21:13:05.035Z,1.00
2023-03-29T21:15:31.978Z,1.15
2023-03-29T21:17:59.402Z,1.10
2023-03-29T21:20:27.564Z,1.73
2023-03-29T21:22:54.463Z,1.70
2023-03-29T21:25:21.633Z,2.10
2023-03-29T21:27:49.080Z,1.08
2023-03-29T21:30:16.380Z,1.60
2023-03-29T21:32:43.348Z,1.08
2023-03-29T21:35:11.073Z,1.10
2023-03-29T21:37:38.192Z,1.40
2023-03-29T21:40:07.015Z,1.17
2023-03-29T21:42:34.672Z,0.90
2023-03-29T21:45:02.131Z,1.05
2023-03-29T21:47:29.566Z,1.77
2023-03-29T21:49:56.567Z,1.48
2023-03-29T21:52:23.517Z,1.27
2023-03-29T21:54:50.614Z,1.70
2023-03-29T21:57:17.745Z,1.23
2023-03-29T21:59:44.757Z,0.98
2023-03-29T22:02:11.720Z,1.08
2023-03-29T22:04:38.647Z,1.10
2023-03-29T22:07:06.496Z,1.00
2023-03-29T22:09:37.595Z,1.15
2023-03-29T22:12:05.131Z,2.35
2023-03-29T22:14:36.481Z,1.20
2023-03-29T22:17:06.242Z,1.40
2023-03-29T22:19:39.260Z,1.02
2023-03-29T22:22:13.561Z,1.30
2023-03-29T22:24:42.060Z,0.90
2023-03-29T22:27:09.914Z,1.13
2023-03-29T22:29:36.773Z,1.58
2023-03-29T22:32:04.085Z,1.02
2023-03-29T22:34:31.355Z,0.90
2023-03-29T22:36:58.260Z,1.15
2023-03-29T22:39:25.155Z,1.85
2023-03-29T22:41:51.962Z,0.77
2023-03-29T22:44:18.839Z,1.45
2023-03-29T22:46:45.766Z,1.10
2023-03-29T22:49:13.141Z,0.95
2023-03-29T22:51:39.967Z,0.73
2023-03-29T22:54:06.806Z,0.73
2023-03-29T22:56:33.734Z,1.10
2023-03-29T22:59:00.625Z,1.42
2023-03-29T23:01:27.672Z,1.42
2023-03-29T23:03:54.803Z,1.23
2023-03-29T23:06:21.732Z,0.88
2023-03-29T23:08:48.589Z,0.90
2023-03-29T23:11:15.625Z,0.98
2023-03-29T23:13:42.502Z,1.10
2023-03-29T23:16:09.639Z,1.02
2023-03-29T23:18:37.462Z,0.80
2023-03-29T23:21:06.154Z,0.90
2023-03-29T23:23:33.684Z,1.75
2023-03-29T23:26:01.656Z,0.95
2023-03-29T23:28:31.686Z,0.95
2023-03-29T23:31:11.466Z,1.20
2023-03-29T23:33:42.572Z,1.00
2023-03-29T23:36:16.922Z,1.13
2023-03-29T23:38:46.336Z,1.13
2023-03-29T23:41:13.473Z,0.70
2023-03-29T23:43:42.989Z,1.05
2023-03-29T23:46:14.046Z,0.85
2023-03-29T23:48:46.015Z,1.33
2023-03-29T23:51:13.361Z,1.10
2023-03-29T23:53:41.097Z,1.00
2023-03-29T23:56:09.097Z,0.98
2023-03-29T23:58:38.098Z,0.90
